createdAt,value
2019-06-26T00:00:40.123Z,99303.19
2019-06-26T00:03:09.502Z,99307.81
2019-06-26T00:05:38.683Z,99309.38
2019-06-26T00:08:07.077Z,99301.97
2019-06-26T00:10:36.541Z,99301.97
2019-06-26T00:13:06.221Z,99303.47
2019-06-26T00:15:35.544Z,99310.52
2019-06-26T00:18:06.391Z,99308.09
2019-06-26T00:20:35.475Z,99308.09
2019-06-26T00:23:05.068Z,99312.78
2019-06-26T00:25:34.674Z,99309.53
2019-06-26T00:28:02.893Z,99313.52
2019-06-26T00:30:31.997Z,99313.52
2019-06-26T00:33:01.157Z,99316.16
2019-06-26T00:35:30.708Z,99321.92
2019-06-26T00:37:59.172Z,99315.09
2019-06-26T00:40:28.707Z,99320.34
2019-06-26T00:42:57.354Z,99320.99
2019-06-26T00:45:26.387Z,99324.29
2019-06-26T00:47:55.575Z,99326.59
2019-06-26T00:50:25.068Z,99329.84
2019-06-26T00:52:53.962Z,99329.84
2019-06-26T00:55:23.437Z,99335.81
2019-06-26T00:57:52.740Z,99321.84
2019-06-26T01:00:30.275Z,99321.84
2019-06-26T01:02:59.548Z,99335.23
2019-06-26T01:05:28.602Z,99333.94
2019-06-26T01:07:58.142Z,99321.31
2019-06-26T01:10:28.048Z,99321.31
2019-06-26T01:12:57.548Z,99339.64
2019-06-26T01:15:26.766Z,99337.67
2019-06-26T01:17:55.762Z,99339.51
2019-06-26T01:20:26.069Z,99336.68
2019-06-26T01:22:55.287Z,99343.20
2019-06-26T01:25:24.081Z,99343.45
2019-06-26T01:27:54.061Z,99343.99
2019-06-26T01:30:25.559Z,99347.32
2019-06-26T01:32:54.537Z,99347.95
2019-06-26T01:35:23.436Z,99347.95
2019-06-26T01:37:52.447Z,99350.55
2019-06-26T01:40:21.950Z,99349.10
2019-06-26T01:42:51.461Z,99348.32
2019-06-26T01:45:20.968Z,99341.12
2019-06-26T01:47:50.790Z,99341.12
2019-06-26T01:50:20.743Z,99349.99
2019-06-26T01:52:48.937Z,99348.66
2019-06-26T01:55:18.035Z,99348.50
2019-06-26T01:57:48.726Z,99342.71
2019-06-26T02:00:18.889Z,99348.04
2019-06-26T02:02:48.050Z,99345.20
2019-06-26T02:05:17.337Z,99343.41
2019-06-26T02:07:46.474Z,99352.08
2019-06-26T02:10:16.093Z,99348.56
2019-06-26T02:12:45.089Z,99351.00
2019-06-26T02:15:14.759Z,99348.73
2019-06-26T02:17:43.876Z,99350.23
2019-06-26T02:20:13.481Z,99346.08
2019-06-26T02:22:42.812Z,99344.80
2019-06-26T02:25:11.861Z,99344.80
2019-06-26T02:27:41.094Z,99348.34
2019-06-26T02:30:10.823Z,99351.52
2019-06-26T02:32:40.496Z,99352.67
2019-06-26T02:35:10.789Z,99353.82
2019-06-26T02:37:39.950Z,99349.92
2019-06-26T02:40:10.293Z,99360.02
2019-06-26T02:42:39.928Z,99349.97
2019-06-26T02:45:09.472Z,99353.52
2019-06-26T02:50:29.245Z,99365.40
2019-06-26T02:53:04.774Z,99365.40
2019-06-26T02:55:33.042Z,99360.02
2019-06-26T02:58:02.066Z,99366.39
2019-06-26T03:00:31.390Z,99361.95
2019-06-26T03:03:01.032Z,99358.20
2019-06-26T03:05:29.970Z,99356.13
2019-06-26T03:07:59.021Z,99361.48
2019-06-26T03:10:27.949Z,99362.39
2019-06-26T03:12:56.814Z,99363.07
2019-06-26T03:15:25.762Z,99361.56
2019-06-26T03:17:55.587Z,99360.13
2019-06-26T03:20:32.402Z,99363.30
2019-06-26T03:23:01.460Z,99364.09
2019-06-26T03:25:30.693Z,99366.94
2019-06-26T03:27:59.788Z,99359.55
2019-06-26T03:30:28.012Z,99359.55
2019-06-26T03:32:57.049Z,99366.59
2019-06-26T03:35:26.566Z,99371.16
2019-06-26T03:37:56.058Z,99366.50
2019-06-26T03:40:25.015Z,99373.41
2019-06-26T03:42:53.921Z,99370.08
2019-06-26T03:45:26.203Z,99371.16
2019-06-26T03:47:53.887Z,99376.39
2019-06-26T03:50:23.120Z,99375.53
2019-06-26T03:52:52.486Z,99379.10
2019-06-26T03:55:21.608Z,99374.27
2019-06-26T03:57:51.714Z,99382.94
2019-06-26T04:00:35.934Z,99382.94
2019-06-26T04:03:05.777Z,99385.21
2019-06-26T04:05:35.337Z,99394.99
2019-06-26T04:08:09.974Z,99399.34
2019-06-26T04:10:38.946Z,99407.80
2019-06-26T04:13:09.174Z,99405.36
2019-06-26T04:15:42.463Z,99406.34
2019-06-26T04:18:11.850Z,99401.51
2019-06-26T04:20:41.285Z,99402.98
2019-06-26T04:23:10.893Z,99406.95
2019-06-26T04:25:40.146Z,99401.92
2019-06-26T04:28:09.567Z,99402.99
2019-06-26T04:30:38.606Z,99403.75
2019-06-26T04:33:07.604Z,99402.33
2019-06-26T04:35:36.787Z,99391.97
2019-06-26T04:38:06.642Z,99391.97
2019-06-26T04:40:35.907Z,99401.86
2019-06-26T04:43:05.223Z,99401.86
2019-06-26T04:45:34.461Z,99428.84
2019-06-26T04:48:06.830Z,99425.56
2019-06-26T04:50:34.252Z,99424.96
2019-06-26T04:53:03.458Z,99430.89
2019-06-26T04:55:32.637Z,99426.16
2019-06-26T04:58:04.460Z,99423.58
2019-06-26T05:00:35.640Z,99425.34
2019-06-26T05:03:04.640Z,99433.84
2019-06-26T05:05:39.533Z,99440.26
2019-06-26T05:08:04.506Z,99440.26
2019-06-26T05:10:33.959Z,99445.70
2019-06-26T05:13:03.838Z,99445.70
2019-06-26T05:15:33.314Z,99450.48
2019-06-26T05:18:02.769Z,99453.98
2019-06-26T05:20:31.453Z,99459.36
2019-06-26T05:23:00.571Z,99450.95
2019-06-26T05:25:29.758Z,99448.23
2019-06-26T05:27:59.235Z,99448.23
2019-06-26T05:30:30.781Z,99453.77
2019-06-26T05:33:19.740Z,99458.61
2019-06-26T05:35:51.018Z,99462.27
2019-06-26T05:38:20.671Z,99461.39
2019-06-26T05:40:50.691Z,99462.65
2019-06-26T05:43:20.552Z,99469.38
2019-06-26T05:45:50.327Z,99464.28
2019-06-26T05:48:20.348Z,99470.25
2019-06-26T05:50:53.417Z,99479.33
2019-06-26T05:53:23.295Z,99487.65
2019-06-26T05:55:52.806Z,99487.65
2019-06-26T05:58:24.722Z,99485.45
2019-06-26T06:00:54.299Z,99482.06
2019-06-26T06:03:23.614Z,99482.52
2019-06-26T06:05:53.530Z,99487.27
2019-06-26T06:08:23.312Z,99487.27
2019-06-26T06:10:53.613Z,99490.09
2019-06-26T06:13:22.470Z,99486.14
2019-06-26T06:15:52.594Z,99485.84
2019-06-26T06:18:21.837Z,99486.83
2019-06-26T06:20:51.774Z,99486.83
2019-06-26T06:23:22.844Z,99496.20
2019-06-26T06:25:52.816Z,99502.93
2019-06-26T06:28:22.563Z,99506.10
2019-06-26T06:30:52.304Z,99507.94
2019-06-26T06:33:23.308Z,99504.25
2019-06-26T06:35:53.548Z,99507.40
2019-06-26T06:38:22.515Z,99505.55
2019-06-26T06:40:52.309Z,99507.02
2019-06-26T06:43:21.955Z,99507.02
2019-06-26T06:45:52.046Z,99513.76
2019-06-26T06:48:22.588Z,99508.06
2019-06-26T06:50:51.865Z,99509.00
2019-06-26T06:53:21.790Z,99510.03
2019-06-26T06:55:51.774Z,99509.38
2019-06-26T06:58:21.303Z,99519.27
2019-06-26T07:00:51.544Z,99526.78
2019-06-26T07:03:21.247Z,99534.48
2019-06-26T07:05:50.558Z,99524.30
2019-06-26T07:08:20.832Z,99516.58
2019-06-26T07:10:50.847Z,99516.58
2019-06-26T07:13:23.458Z,99533.25
2019-06-26T07:15:52.972Z,99530.21
2019-06-26T07:18:22.958Z,99530.21
2019-06-26T07:20:52.906Z,99520.40
2019-06-26T07:23:22.899Z,99525.44
2019-06-26T07:25:52.669Z,99531.29
2019-06-26T07:28:22.367Z,99523.71
2019-06-26T07:30:52.030Z,99523.71
2019-06-26T07:33:21.537Z,99519.11
2019-06-26T07:35:50.494Z,99527.41
2019-06-26T07:38:19.053Z,99527.41
2019-06-26T07:40:48.293Z,99528.43
2019-06-26T07:43:18.726Z,99528.43
2019-06-26T07:45:51.489Z,99535.58
2019-06-26T07:48:20.581Z,99538.16
2019-06-26T07:50:50.439Z,99538.16
2019-06-26T07:53:20.296Z,99533.44
2019-06-26T07:55:49.713Z,99532.19
2019-06-26T07:58:23.032Z,99530.12
2019-06-26T08:00:52.135Z,99528.53
2019-06-26T08:03:21.572Z,99534.24
2019-06-26T08:05:50.453Z,99536.99
2019-06-26T08:08:19.879Z,99536.99
2019-06-26T08:10:49.296Z,99533.35
2019-06-26T08:13:18.789Z,99534.73
2019-06-26T08:15:48.506Z,99552.67
2019-06-26T08:18:17.889Z,99548.42
2019-06-26T08:20:55.351Z,99548.42
2019-06-26T08:23:18.143Z,99547.90
2019-06-26T08:25:47.509Z,99547.44
2019-06-26T08:28:16.899Z,99547.80
2019-06-26T08:30:45.983Z,99556.73
2019-06-26T08:33:15.287Z,99556.49
2019-06-26T08:35:44.807Z,99551.48
2019-06-26T08:38:15.810Z,99548.11
2019-06-26T08:40:45.294Z,99544.99
2019-06-26T08:43:15.322Z,99550.48
2019-06-26T08:45:44.652Z,99548.03
2019-06-26T08:48:28.144Z,99543.19
2019-06-26T08:50:45.125Z,99547.14
2019-06-26T08:53:15.975Z,99544.85
2019-06-26T08:55:48.735Z,99540.42
2019-06-26T08:58:21.381Z,99538.72
2019-06-26T09:00:52.975Z,99521.48
2019-06-26T09:03:23.020Z,99521.48
2019-06-26T09:05:53.783Z,99532.85
2019-06-26T09:08:23.647Z,99535.70
2019-06-26T09:11:07.728Z,99532.59
2019-06-26T09:13:36.057Z,99531.36
2019-06-26T09:16:05.545Z,99527.36
2019-06-26T09:18:36.247Z,99521.78
2019-06-26T09:21:06.306Z,99522.66
2019-06-26T09:23:35.475Z,99517.74
2019-06-26T09:26:04.598Z,99520.98
2019-06-26T09:28:33.273Z,99530.33
2019-06-26T09:31:02.119Z,99534.48
2019-06-26T09:33:32.400Z,99530.25
2019-06-26T09:36:01.585Z,99521.80
2019-06-26T09:38:30.870Z,99526.17
2019-06-26T09:40:59.951Z,99522.17
2019-06-26T09:43:30.101Z,99526.63
2019-06-26T09:45:59.599Z,99530.45
2019-06-26T09:48:28.058Z,99505.44
2019-06-26T09:50:57.327Z,99505.44
2019-06-26T09:53:26.559Z,99512.28
2019-06-26T09:55:55.594Z,99514.33
2019-06-26T09:58:23.715Z,99514.44
2019-06-26T10:00:53.754Z,99511.25
2019-06-26T10:03:23.141Z,99521.58
2019-06-26T10:05:52.556Z,99510.06
2019-06-26T10:08:21.000Z,99512.22
2019-06-26T10:10:50.154Z,99512.22
2019-06-26T10:13:19.408Z,99510.68
2019-06-26T10:15:48.769Z,99520.60
2019-06-26T10:18:17.953Z,99518.08
2019-06-26T10:20:46.933Z,99507.93
2019-06-26T10:23:15.963Z,99510.94
2019-06-26T10:25:45.629Z,99507.61
2019-06-26T10:28:14.841Z,99509.71
2019-06-26T10:30:44.049Z,99511.30
2019-06-26T10:33:13.144Z,99509.84
2019-06-26T10:35:45.158Z,99510.86
2019-06-26T10:38:14.127Z,99507.64
2019-06-26T10:40:43.807Z,99506.78
2019-06-26T10:43:15.624Z,99502.47
2019-06-26T10:45:43.946Z,99503.38
2019-06-26T10:48:13.068Z,99503.38
2019-06-26T10:50:49.346Z,99503.26
2019-06-26T10:53:13.427Z,99500.63
2019-06-26T10:55:42.439Z,99495.61
2019-06-26T10:58:13.157Z,99499.10
2019-06-26T11:00:44.106Z,99497.22
2019-06-26T11:03:13.307Z,99485.25
2019-06-26T11:05:43.405Z,99472.59
2019-06-26T11:08:13.029Z,99462.98
2019-06-26T11:10:46.586Z,99464.06
2019-06-26T11:13:16.013Z,99455.66
2019-06-26T11:15:48.652Z,99451.75
2019-06-26T11:18:17.580Z,99458.34
2019-06-26T11:20:46.049Z,99455.13
2019-06-26T11:23:15.099Z,99455.13
2019-06-26T11:25:44.635Z,99457.25
2019-06-26T11:28:14.589Z,99460.26
2019-06-26T11:30:44.100Z,99443.73
2019-06-26T11:33:13.050Z,99443.73
2019-06-26T11:35:42.501Z,99452.19
2019-06-26T11:38:13.988Z,99460.95
2019-06-26T11:40:43.125Z,99460.95
2019-06-26T11:43:11.955Z,99470.22
2019-06-26T11:45:43.192Z,99466.11
2019-06-26T11:48:12.507Z,99466.30
2019-06-26T11:50:41.610Z,99444.09
2019-06-26T11:53:11.017Z,99442.67
2019-06-26T11:55:40.399Z,99447.95
2019-06-26T11:58:09.766Z,99451.73
2019-06-26T12:00:41.599Z,99447.42
2019-06-26T12:03:13.109Z,99439.53
2019-06-26T12:05:40.928Z,99444.89
2019-06-26T12:08:09.928Z,99432.00
2019-06-26T12:10:39.021Z,99425.67
2019-06-26T12:13:08.742Z,99425.29
2019-06-26T12:15:37.836Z,99427.63
2019-06-26T12:18:07.890Z,99423.53
2019-06-26T12:20:37.114Z,99411.89
2019-06-26T12:23:06.424Z,99412.32
2019-06-26T12:25:35.759Z,99413.34
2019-06-26T12:28:07.573Z,99405.87
2019-06-26T12:30:39.737Z,99405.63
2019-06-26T12:33:13.092Z,99406.93
2019-06-26T12:35:43.969Z,99404.90
2019-06-26T12:38:13.120Z,99407.95
2019-06-26T12:40:42.098Z,99407.78
2019-06-26T12:43:11.308Z,99410.27
2019-06-26T12:45:40.424Z,99403.98
2019-06-26T12:48:09.913Z,99405.27
2019-06-26T12:50:39.160Z,99401.86
2019-06-26T12:53:08.596Z,99395.29
2019-06-26T12:55:36.966Z,99397.04
2019-06-26T12:58:13.138Z,99388.94
2019-06-26T13:00:37.838Z,99386.98
2019-06-26T13:03:06.928Z,99367.64
2019-06-26T13:05:35.941Z,99387.36
2019-06-26T13:08:04.985Z,99378.73
2019-06-26T13:10:48.463Z,99377.36
2019-06-26T13:13:04.738Z,99362.56
2019-06-26T13:15:33.031Z,99366.17
2019-06-26T13:18:02.515Z,99356.19
2019-06-26T13:20:32.248Z,99358.84
2019-06-26T13:23:01.391Z,99339.98
2019-06-26T13:25:31.056Z,99339.98
2019-06-26T13:28:02.324Z,99360.06
2019-06-26T13:30:38.373Z,99348.78
2019-06-26T13:33:08.874Z,99349.34
2019-06-26T13:35:38.543Z,99346.73
2019-06-26T13:38:07.380Z,99343.52
2019-06-26T13:40:42.739Z,99343.52
2019-06-26T13:43:12.006Z,99345.87
2019-06-26T13:45:49.863Z,99353.14
2019-06-26T13:48:20.558Z,99352.02
2019-06-26T13:50:50.671Z,99349.09
2019-06-26T13:53:20.426Z,99346.43
2019-06-26T13:55:50.184Z,99342.62
2019-06-26T13:58:19.679Z,99346.13
2019-06-26T14:00:48.877Z,99338.22
2019-06-26T14:03:18.956Z,99341.05
2019-06-26T14:05:48.578Z,99341.94
2019-06-26T14:08:18.156Z,99333.65
2019-06-26T14:10:48.177Z,99333.65
2019-06-26T14:13:17.528Z,99336.83
2019-06-26T14:15:46.005Z,99340.48
2019-06-26T14:18:15.701Z,99337.48
2019-06-26T14:20:45.536Z,99330.30
2019-06-26T14:23:15.557Z,99335.45
2019-06-26T14:25:49.954Z,99331.14
2019-06-26T14:28:20.316Z,99331.14
2019-06-26T14:30:49.993Z,99330.27
2019-06-26T14:33:19.993Z,99334.76
2019-06-26T14:35:49.661Z,99336.65
2019-06-26T14:38:19.155Z,99332.30
2019-06-26T14:40:48.809Z,99325.52
2019-06-26T14:43:18.178Z,99325.09
2019-06-26T14:45:47.982Z,99323.84
2019-06-26T14:48:17.784Z,99323.41
2019-06-26T14:50:47.849Z,99320.16
2019-06-26T14:53:17.133Z,99320.20
2019-06-26T14:55:46.729Z,99313.59
2019-06-26T14:58:15.490Z,99308.82
2019-06-26T15:00:44.613Z,99295.58
2019-06-26T15:03:13.025Z,99295.58
2019-06-26T15:05:45.492Z,99311.20
2019-06-26T15:08:14.612Z,99312.97
2019-06-26T15:10:44.306Z,99296.99
2019-06-26T15:13:13.563Z,99296.99
2019-06-26T15:15:43.132Z,99300.23
2019-06-26T15:18:12.424Z,99298.83
2019-06-26T15:20:41.995Z,99286.25
2019-06-26T15:23:11.554Z,99284.98
2019-06-26T15:25:40.117Z,99291.81
2019-06-26T15:28:10.556Z,99274.69
2019-06-26T15:30:40.062Z,99276.50
2019-06-26T15:33:09.822Z,99281.23
2019-06-26T15:35:39.305Z,99279.67
2019-06-26T15:55:45.773Z,99268.27
2019-06-26T15:58:14.970Z,99273.66
2019-06-26T16:00:45.959Z,99266.66
2019-06-26T16:03:15.084Z,99265.73
2019-06-26T16:05:43.943Z,99263.29
2019-06-26T16:08:13.594Z,99259.52
2019-06-26T16:10:42.875Z,99258.13
2019-06-26T16:13:12.004Z,99258.13
2019-06-26T16:15:41.607Z,99263.11
2019-06-26T16:18:22.955Z,99265.34
2019-06-26T16:20:52.108Z,99265.34
2019-06-26T16:23:20.954Z,99266.25
2019-06-26T16:25:50.079Z,99264.81
2019-06-26T16:28:18.961Z,99261.91
2019-06-26T16:30:47.944Z,99265.28
2019-06-26T16:33:17.420Z,99261.84
2019-06-26T16:35:46.551Z,99263.03
2019-06-26T16:38:16.070Z,99268.45
2019-06-26T16:40:45.108Z,99263.38
2019-06-26T16:43:14.130Z,99266.71
2019-06-26T16:45:43.404Z,99269.03
2019-06-26T16:48:12.602Z,99260.38
2019-06-26T16:50:41.972Z,99247.78
2019-06-26T16:53:11.503Z,99247.78
2019-06-26T16:55:40.580Z,99257.73
2019-06-26T16:58:08.949Z,99246.39
2019-06-26T17:00:38.034Z,99246.39
2019-06-26T17:03:07.337Z,99255.84
2019-06-26T17:05:36.443Z,99258.73
2019-06-26T17:08:05.477Z,99262.72
2019-06-26T17:10:34.444Z,99254.44
2019-06-26T17:13:03.441Z,99255.63
2019-06-26T17:15:32.601Z,99260.00
2019-06-26T17:18:01.006Z,99270.75
2019-06-26T17:20:30.084Z,99270.75
2019-06-26T17:23:05.583Z,99263.47
2019-06-26T17:25:30.472Z,99270.42
2019-06-26T17:27:59.430Z,99263.50
2019-06-26T17:30:28.467Z,99269.75
2019-06-26T17:32:57.769Z,99262.33
2019-06-26T17:35:25.883Z,99263.38
2019-06-26T17:37:54.851Z,99271.77
2019-06-26T17:40:24.455Z,99267.78
2019-06-26T17:42:53.509Z,99270.71
2019-06-26T17:45:22.577Z,99272.08
2019-06-26T17:47:51.633Z,99268.32
2019-06-26T17:50:20.761Z,99261.04
2019-06-26T17:52:49.744Z,99261.04
2019-06-26T17:55:18.980Z,99272.43
2019-06-26T17:57:48.006Z,99265.45
2019-06-26T18:00:23.513Z,99267.09
2019-06-26T18:02:52.637Z,99263.52
2019-06-26T18:05:21.735Z,99256.79
2019-06-26T18:07:49.911Z,99256.79
2019-06-26T18:10:18.774Z,99261.41
2019-06-26T18:12:48.818Z,99257.55
2019-06-26T18:15:17.808Z,99267.27
2019-06-26T18:17:46.709Z,99262.69
2019-06-26T18:20:17.412Z,99254.94
2019-06-26T18:22:46.470Z,99254.94
2019-06-26T18:25:16.689Z,99262.86
2019-06-26T18:27:45.995Z,99258.52
2019-06-26T18:30:15.931Z,99262.30
2019-06-26T18:32:45.052Z,99258.95
2019-06-26T18:35:14.962Z,99254.78
2019-06-26T18:37:44.096Z,99258.94
2019-06-26T18:40:14.426Z,99257.73
2019-06-26T18:42:44.814Z,99255.16
2019-06-26T18:45:14.895Z,99261.42
2019-06-26T18:47:44.435Z,99257.41
2019-06-26T18:50:13.621Z,99256.33
2019-06-26T18:52:42.637Z,99252.44
2019-06-26T18:55:11.673Z,99252.44
2019-06-26T18:57:40.907Z,99249.22
2019-06-26T19:00:10.635Z,99253.55
2019-06-26T19:02:39.675Z,99243.02
2019-06-26T19:05:09.075Z,99243.02
2019-06-26T19:07:38.438Z,99241.61
2019-06-26T19:10:08.580Z,99244.92
2019-06-26T19:12:37.640Z,99248.63
2019-06-26T19:15:08.446Z,99230.68
2019-06-26T19:17:37.884Z,99230.68
2019-06-26T19:20:07.764Z,99242.02
2019-06-26T19:22:36.716Z,99248.72
2019-06-26T19:25:05.822Z,99243.14
2019-06-26T19:27:34.934Z,99243.88
2019-06-26T19:30:05.309Z,99245.94
2019-06-26T19:32:37.321Z,99255.64
2019-06-26T19:35:18.205Z,99257.05
2019-06-26T19:37:36.050Z,99261.63
2019-06-26T19:40:08.586Z,99260.02
2019-06-26T19:42:37.447Z,99267.75
2019-06-26T19:45:09.108Z,99269.16
2019-06-26T19:47:37.823Z,99269.14
2019-06-26T19:50:07.696Z,99270.09
2019-06-26T19:52:38.654Z,99271.02
2019-06-26T19:55:07.477Z,99290.76
2019-06-26T19:57:36.530Z,99290.76
2019-06-26T20:00:06.526Z,99284.29
2019-06-26T20:02:35.442Z,99295.85
2019-06-26T20:05:05.590Z,99295.91
2019-06-26T20:07:34.508Z,99295.14
2019-06-26T20:10:04.108Z,99296.45
2019-06-26T20:12:33.025Z,99300.90
2019-06-26T20:15:02.886Z,99312.11
2019-06-26T20:17:32.037Z,99312.48
2019-06-26T20:20:01.111Z,99313.26
2019-06-26T20:22:30.446Z,99308.72
2019-06-26T20:24:59.565Z,99310.61
2019-06-26T20:27:27.867Z,99296.59
2019-06-26T20:29:56.943Z,99296.59
2019-06-26T20:32:26.160Z,99306.35
2019-06-26T20:34:55.408Z,99313.16
2019-06-26T20:37:24.744Z,99311.31
2019-06-26T20:39:53.809Z,99315.73
2019-06-26T20:42:22.774Z,99315.78
2019-06-26T20:44:51.685Z,99317.94
2019-06-26T20:47:21.967Z,99313.88
2019-06-26T20:49:53.439Z,99318.41
2019-06-26T20:52:25.482Z,99322.17
2019-06-26T20:55:59.834Z,99309.73
2019-06-26T20:58:28.917Z,99322.14
2019-06-26T21:00:59.129Z,99319.89
2019-06-26T21:03:28.117Z,99321.32
2019-06-26T21:05:57.477Z,99324.50
2019-06-26T21:08:29.431Z,99319.56
2019-06-26T21:10:57.719Z,99319.56
2019-06-26T21:13:26.918Z,99325.81
2019-06-26T21:15:55.958Z,99325.39
2019-06-26T21:18:24.988Z,99327.05
2019-06-26T21:20:54.188Z,99323.33
2019-06-26T21:23:23.663Z,99320.35
2019-06-26T21:25:52.943Z,99323.76
2019-06-26T21:28:21.738Z,99322.09
2019-06-26T21:30:50.013Z,99329.97
2019-06-26T21:33:19.013Z,99334.50
2019-06-26T21:35:47.847Z,99331.63
2019-06-26T21:38:16.789Z,99331.70
2019-06-26T21:40:45.889Z,99347.13
2019-06-26T21:43:15.116Z,99348.64
2019-06-26T21:45:44.120Z,99338.67
2019-06-26T21:48:13.305Z,99342.05
2019-06-26T21:50:41.951Z,99343.34
2019-06-26T21:53:10.988Z,99337.94
2019-06-26T21:55:42.030Z,99337.29
2019-06-26T21:58:29.916Z,99336.86
2019-06-26T22:01:17.850Z,99330.03
2019-06-26T22:04:07.310Z,99332.31
2019-06-26T22:06:38.597Z,99339.11
2019-06-26T22:09:27.828Z,99339.44
2019-06-26T22:12:00.575Z,99340.58
2019-06-26T22:14:27.854Z,99343.12
2019-06-26T22:16:56.896Z,99338.84
2019-06-26T22:19:26.130Z,99346.92
2019-06-26T22:21:54.940Z,99351.72
2019-06-26T22:24:24.043Z,99349.58
2019-06-26T22:26:54.317Z,99345.55
2019-06-26T22:29:25.941Z,99348.52
2019-06-26T22:31:56.812Z,99349.86
2019-06-26T22:34:27.012Z,99354.98
2019-06-26T22:36:55.956Z,99356.31
2019-06-26T22:39:24.991Z,99357.89
2019-06-26T22:41:53.980Z,99356.39
2019-06-26T22:44:23.172Z,99352.18
2019-06-26T22:46:52.187Z,99348.13
2019-06-26T22:49:21.744Z,99355.73
2019-06-26T22:51:50.820Z,99348.47
2019-06-26T22:54:20.084Z,99344.96
2019-06-26T22:56:49.628Z,99340.49
2019-06-26T22:59:18.732Z,99347.14
2019-06-26T23:02:00.763Z,99348.95
2019-06-26T23:04:30.131Z,99343.77
2019-06-26T23:06:58.995Z,99334.87
2019-06-26T23:09:28.142Z,99345.03
2019-06-26T23:11:57.041Z,99344.28
2019-06-26T23:14:26.067Z,99344.24
2019-06-26T23:16:54.962Z,99350.83
2019-06-26T23:19:24.615Z,99360.67
2019-06-26T23:21:53.364Z,99352.48
2019-06-26T23:24:22.484Z,99350.20
2019-06-26T23:26:51.717Z,99351.95
2019-06-26T23:29:19.879Z,99348.73
2019-06-26T23:31:48.971Z,99350.45
2019-06-26T23:34:18.142Z,99346.94
2019-06-26T23:36:46.991Z,99350.03
2019-06-26T23:39:16.496Z,99352.66
2019-06-26T23:41:45.619Z,99344.53
2019-06-26T23:44:14.790Z,99361.22
2019-06-26T23:46:43.825Z,99361.22
2019-06-26T23:49:12.885Z,99351.16
2019-06-26T23:51:41.614Z,99348.78
2019-06-26T23:54:10.561Z,99331.48
2019-06-26T23:56:40.925Z,99331.48
2019-06-26T23:59:10.484Z,99339.23
